sensor_id;sensor_type;location;lat;lon;timestamp;P1;durP1;ratioP1;P2;durP2;ratioP2
59972;SDS011;55298;-36.624;-64.282;2023-07-30T00:01:45;9.95;;;8.38;;
59972;SDS011;55298;-36.624;-64.282;2023-07-30T00:04:13;21.20;;;15.85;;
59972;SDS011;55298;-36.624;-64.282;2023-07-30T00:06:41;29.90;;;21.83;;
59972;SDS011;55298;-36.624;-64.282;2023-07-30T00:09:08;23.35;;;17.23;;
59972;SDS011;55298;-36.624;-64.282;2023-07-30T00:11:36;20.25;;;13.77;;
59972;SDS011;55298;-36.624;-64.282;2023-07-30T00:14:07;13.65;;;8.27;;
59972;SDS011;55298;-36.624;-64.282;2023-07-30T00:16:35;11.57;;;6.90;;
59972;SDS011;55298;-36.624;-64.282;2023-07-30T00:19:02;8.55;;;6.72;;
59972;SDS011;55298;-36.624;-64.282;2023-07-30T00:21:30;14.40;;;6.85;;
59972;SDS011;55298;-36.624;-64.282;2023-07-30T00:23:58;25.98;;;15.45;;
59972;SDS011;55298;-36.624;-64.282;2023-07-30T00:26:26;12.30;;;8.10;;
59972;SDS011;55298;-36.624;-64.282;2023-07-30T00:28:55;12.60;;;5.97;;
59972;SDS011;55298;-36.624;-64.282;2023-07-30T00:31:22;21.73;;;14.75;;
59972;SDS011;55298;-36.624;-64.282;2023-07-30T00:33:50;11.00;;;7.93;;
59972;SDS011;55298;-36.624;-64.282;2023-07-30T00:36:18;16.30;;;10.60;;
59972;SDS011;55298;-36.624;-64.282;2023-07-30T00:38:46;14.90;;;9.30;;
59972;SDS011;55298;-36.624;-64.282;2023-07-30T00:41:14;17.08;;;11.75;;
59972;SDS011;55298;-36.624;-64.282;2023-07-30T00:43:41;26.15;;;19.33;;
59972;SDS011;55298;-36.624;-64.282;2023-07-30T00:46:11;19.55;;;13.80;;
59972;SDS011;55298;-36.624;-64.282;2023-07-30T00:48:39;24.83;;;16.88;;
59972;SDS011;55298;-36.624;-64.282;2023-07-30T00:51:09;30.35;;;17.88;;
59972;SDS011;55298;-36.624;-64.282;2023-07-30T00:53:39;17.58;;;11.60;;
59972;SDS011;55298;-36.624;-64.282;2023-07-30T00:56:07;18.85;;;11.25;;
59972;SDS011;55298;-36.624;-64.282;2023-07-30T00:58:35;18.27;;;14.23;;
59972;SDS011;55298;-36.624;-64.282;2023-07-30T01:01:03;19.17;;;12.63;;
59972;SDS011;55298;-36.624;-64.282;2023-07-30T01:03:32;26.85;;;17.52;;
59972;SDS011;55298;-36.624;-64.282;2023-07-30T01:06:00;22.30;;;12.40;;
59972;SDS011;55298;-36.624;-64.282;2023-07-30T01:08:28;22.50;;;13.18;;
59972;SDS011;55298;-36.624;-64.282;2023-07-30T01:10:56;17.25;;;12.27;;
59972;SDS011;55298;-36.624;-64.282;2023-07-30T01:13:25;13.68;;;11.00;;
59972;SDS011;55298;-36.624;-64.282;2023-07-30T01:15:55;12.05;;;8.85;;
59972;SDS011;55298;-36.624;-64.282;2023-07-30T01:18:22;16.38;;;10.05;;
59972;SDS011;55298;-36.624;-64.282;2023-07-30T01:20:53;17.58;;;9.82;;
59972;SDS011;55298;-36.624;-64.282;2023-07-30T01:23:25;15.80;;;9.65;;
59972;SDS011;55298;-36.624;-64.282;2023-07-30T01:25:57;12.02;;;8.95;;
59972;SDS011;55298;-36.624;-64.282;2023-07-30T01:28:31;10.63;;;8.40;;
59972;SDS011;55298;-36.624;-64.282;2023-07-30T01:31:03;20.73;;;15.07;;
59972;SDS011;55298;-36.624;-64.282;2023-07-30T01:33:33;19.48;;;10.90;;
59972;SDS011;55298;-36.624;-64.282;2023-07-30T01:36:00;10.07;;;9.15;;
59972;SDS011;55298;-36.624;-64.282;2023-07-30T01:38:30;18.42;;;12.43;;
59972;SDS011;55298;-36.624;-64.282;2023-07-30T01:40:58;20.70;;;13.75;;
59972;SDS011;55298;-36.624;-64.282;2023-07-30T01:43:27;14.80;;;12.05;;
59972;SDS011;55298;-36.624;-64.282;2023-07-30T01:45:55;14.57;;;9.82;;
59972;SDS011;55298;-36.624;-64.282;2023-07-30T01:48:26;19.85;;;12.10;;
59972;SDS011;55298;-36.624;-64.282;2023-07-30T01:50:54;27.13;;;14.88;;
59972;SDS011;55298;-36.624;-64.282;2023-07-30T01:53:22;18.17;;;12.32;;
59972;SDS011;55298;-36.624;-64.282;2023-07-30T01:55:49;17.73;;;9.43;;
59972;SDS011;55298;-36.624;-64.282;2023-07-30T01:58:18;14.80;;;9.98;;
59972;SDS011;55298;-36.624;-64.282;2023-07-30T02:00:47;21.70;;;12.40;;
59972;SDS011;55298;-36.624;-64.282;2023-07-30T02:03:14;12.70;;;10.05;;
59972;SDS011;55298;-36.624;-64.282;2023-07-30T02:05:42;19.52;;;11.38;;
59972;SDS011;55298;-36.624;-64.282;2023-07-30T02:08:10;18.90;;;13.52;;
59972;SDS011;55298;-36.624;-64.282;2023-07-30T02:10:41;12.15;;;9.68;;
59972;SDS011;55298;-36.624;-64.282;2023-07-30T02:13:09;14.40;;;8.60;;
59972;SDS011;55298;-36.624;-64.282;2023-07-30T02:15:39;10.13;;;7.97;;
59972;SDS011;55298;-36.624;-64.282;2023-07-30T02:18:08;12.00;;;8.35;;
59972;SDS011;55298;-36.624;-64.282;2023-07-30T02:20:36;10.15;;;8.07;;
59972;SDS011;55298;-36.624;-64.282;2023-07-30T02:23:04;11.10;;;7.38;;
59972;SDS011;55298;-36.624;-64.282;2023-07-30T02:25:35;13.20;;;8.02;;
59972;SDS011;55298;-36.624;-64.282;2023-07-30T02:28:04;8.77;;;7.57;;
59972;SDS011;55298;-36.624;-64.282;2023-07-30T02:30:36;9.57;;;7.47;;
59972;SDS011;55298;-36.624;-64.282;2023-07-30T02:33:04;14.80;;;8.48;;
59972;SDS011;55298;-36.624;-64.282;2023-07-30T02:35:32;16.73;;;8.30;;
59972;SDS011;55298;-36.624;-64.282;2023-07-30T02:38:00;14.65;;;7.95;;
59972;SDS011;55298;-36.624;-64.282;2023-07-30T02:40:29;13.43;;;7.88;;
59972;SDS011;55298;-36.624;-64.282;2023-07-30T02:42:57;13.00;;;8.57;;
59972;SDS011;55298;-36.624;-64.282;2023-07-30T02:45:25;11.38;;;9.35;;
59972;SDS011;55298;-36.624;-64.282;2023-07-30T02:47:53;16.27;;;11.05;;
59972;SDS011;55298;-36.624;-64.282;2023-07-30T02:50:21;21.92;;;12.43;;
59972;SDS011;55298;-36.624;-64.282;2023-07-30T02:52:49;12.50;;;8.40;;
59972;SDS011;55298;-36.624;-64.282;2023-07-30T02:55:17;25.10;;;11.45;;
59972;SDS011;55298;-36.624;-64.282;2023-07-30T02:57:45;22.42;;;15.38;;
59972;SDS011;55298;-36.624;-64.282;2023-07-30T03:00:12;20.75;;;12.07;;
59972;SDS011;55298;-36.624;-64.282;2023-07-30T03:02:40;19.60;;;10.98;;
59972;SDS011;55298;-36.624;-64.282;2023-07-30T03:05:08;16.70;;;10.60;;
59972;SDS011;55298;-36.624;-64.282;2023-07-30T03:07:36;20.40;;;9.90;;
59972;SDS011;55298;-36.624;-64.282;2023-07-30T03:10:05;15.98;;;9.13;;
59972;SDS011;55298;-36.624;-64.282;2023-07-30T03:12:33;19.33;;;9.27;;
59972;SDS011;55298;-36.624;-64.282;2023-07-30T03:15:00;10.93;;;7.65;;
59972;SDS011;55298;-36.624;-64.282;2023-07-30T03:17:28;14.10;;;10.85;;
59972;SDS011;55298;-36.624;-64.282;2023-07-30T03:19:58;22.48;;;11.18;;
59972;SDS011;55298;-36.624;-64.282;2023-07-30T03:22:26;15.30;;;9.60;;
59972;SDS011;55298;-36.624;-64.282;2023-07-30T03:24:54;18.30;;;11.27;;
59972;SDS011;55298;-36.624;-64.282;2023-07-30T03:27:22;23.08;;;14.90;;
59972;SDS011;55298;-36.624;-64.282;2023-07-30T03:29:51;17.85;;;11.80;;
59972;SDS011;55298;-36.624;-64.282;2023-07-30T03:32:18;14.55;;;9.05;;
59972;SDS011;55298;-36.624;-64.282;2023-07-30T03:34:46;23.27;;;11.93;;
59972;SDS011;55298;-36.624;-64.282;2023-07-30T03:37:14;18.08;;;12.38;;
59972;SDS011;55298;-36.624;-64.282;2023-07-30T03:39:42;18.27;;;10.32;;
59972;SDS011;55298;-36.624;-64.282;2023-07-30T03:42:11;18.38;;;10.80;;
59972;SDS011;55298;-36.624;-64.282;2023-07-30T03:44:38;17.52;;;12.30;;
59972;SDS011;55298;-36.624;-64.282;2023-07-30T03:47:06;16.73;;;11.50;;
59972;SDS011;55298;-36.624;-64.282;2023-07-30T03:49:34;20.17;;;12.80;;
59972;SDS011;55298;-36.624;-64.282;2023-07-30T03:52:03;18.73;;;13.55;;
59972;SDS011;55298;-36.624;-64.282;2023-07-30T03:54:31;20.90;;;12.40;;
59972;SDS011;55298;-36.624;-64.282;2023-07-30T03:56:59;25.50;;;14.38;;
59972;SDS011;55298;-36.624;-64.282;2023-07-30T03:59:27;18.75;;;12.00;;
59972;SDS011;55298;-36.624;-64.282;2023-07-30T04:01:55;21.05;;;11.95;;
59972;SDS011;55298;-36.624;-64.282;2023-07-30T04:04:22;13.80;;;10.65;;
59972;SDS011;55298;-36.624;-64.282;2023-07-30T04:06:53;23.00;;;10.00;;
59972;SDS011;55298;-36.624;-64.282;2023-07-30T04:09:21;19.48;;;9.35;;
59972;SDS011;55298;-36.624;-64.282;2023-07-30T04:11:48;15.23;;;8.68;;
59972;SDS011;55298;-36.624;-64.282;2023-07-30T04:14:16;12.80;;;7.68;;
59972;SDS011;55298;-36.624;-64.282;2023-07-30T04:16:44;19.77;;;8.52;;
59972;SDS011;55298;-36.624;-64.282;2023-07-30T04:19:12;16.58;;;7.85;;
59972;SDS011;55298;-36.624;-64.282;2023-07-30T04:21:40;19.80;;;7.45;;
59972;SDS011;55298;-36.624;-64.282;2023-07-30T04:24:08;17.48;;;7.00;;
59972;SDS011;55298;-36.624;-64.282;2023-07-30T04:26:36;13.50;;;6.75;;
59972;SDS011;55298;-36.624;-64.282;2023-07-30T04:29:04;10.48;;;6.47;;
59972;SDS011;55298;-36.624;-64.282;2023-07-30T04:31:32;21.42;;;7.22;;
59972;SDS011;55298;-36.624;-64.282;2023-07-30T04:33:59;13.80;;;6.88;;
59972;SDS011;55298;-36.624;-64.282;2023-07-30T04:36:27;18.05;;;8.65;;
59972;SDS011;55298;-36.624;-64.282;2023-07-30T04:38:55;22.58;;;8.55;;
59972;SDS011;55298;-36.624;-64.282;2023-07-30T04:41:22;14.85;;;6.93;;
59972;SDS011;55298;-36.624;-64.282;2023-07-30T04:43:50;19.30;;;7.35;;
59972;SDS011;55298;-36.624;-64.282;2023-07-30T04:46:20;17.30;;;7.30;;
59972;SDS011;55298;-36.624;-64.282;2023-07-30T04:48:48;17.83;;;6.93;;
59972;SDS011;55298;-36.624;-64.282;2023-07-30T04:51:16;16.15;;;7.05;;
59972;SDS011;55298;-36.624;-64.282;2023-07-30T04:53:43;17.55;;;7.47;;
59972;SDS011;55298;-36.624;-64.282;2023-07-30T04:56:11;17.67;;;7.03;;
59972;SDS011;55298;-36.624;-64.282;2023-07-30T04:58:40;19.17;;;7.63;;
59972;SDS011;55298;-36.624;-64.282;2023-07-30T05:01:13;30.07;;;7.53;;
59972;SDS011;55298;-36.624;-64.282;2023-07-30T05:03:41;21.80;;;8.02;;
59972;SDS011;55298;-36.624;-64.282;2023-07-30T05:06:09;14.98;;;7.03;;
59972;SDS011;55298;-36.624;-64.282;2023-07-30T05:08:37;13.75;;;6.43;;
59972;SDS011;55298;-36.624;-64.282;2023-07-30T05:11:08;18.83;;;6.78;;
59972;SDS011;55298;-36.624;-64.282;2023-07-30T05:13:36;22.95;;;7.22;;
59972;SDS011;55298;-36.624;-64.282;2023-07-30T05:16:03;25.38;;;7.40;;
59972;SDS011;55298;-36.624;-64.282;2023-07-30T05:18:32;23.98;;;7.15;;
59972;SDS011;55298;-36.624;-64.282;2023-07-30T05:21:02;16.33;;;7.07;;
59972;SDS011;55298;-36.624;-64.282;2023-07-30T05:23:30;24.27;;;7.13;;
59972;SDS011;55298;-36.624;-64.282;2023-07-30T05:25:58;23.20;;;7.40;;
59972;SDS011;55298;-36.624;-64.282;2023-07-30T05:28:26;21.15;;;6.20;;
59972;SDS011;55298;-36.624;-64.282;2023-07-30T05:30:54;20.13;;;7.47;;
59972;SDS011;55298;-36.624;-64.282;2023-07-30T05:33:22;19.98;;;7.32;;
59972;SDS011;55298;-36.624;-64.282;2023-07-30T05:35:50;26.17;;;7.70;;
59972;SDS011;55298;-36.624;-64.282;2023-07-30T05:38:18;13.43;;;6.60;;
59972;SDS011;55298;-36.624;-64.282;2023-07-30T05:40:45;23.40;;;6.30;;
59972;SDS011;55298;-36.624;-64.282;2023-07-30T05:43:13;20.05;;;7.20;;
59972;SDS011;55298;-36.624;-64.282;2023-07-30T05:45:41;32.03;;;7.47;;
59972;SDS011;55298;-36.624;-64.282;2023-07-30T05:48:09;32.67;;;7.63;;
59972;SDS011;55298;-36.624;-64.282;2023-07-30T05:50:37;19.92;;;7.10;;
59972;SDS011;55298;-36.624;-64.282;2023-07-30T05:53:05;22.33;;;8.38;;
59972;SDS011;55298;-36.624;-64.282;2023-07-30T05:55:34;28.80;;;8.57;;
59972;SDS011;55298;-36.624;-64.282;2023-07-30T05:58:02;39.83;;;8.85;;
59972;SDS011;55298;-36.624;-64.282;2023-07-30T06:00:29;30.10;;;6.78;;
59972;SDS011;55298;-36.624;-64.282;2023-07-30T06:02:57;35.30;;;8.38;;
59972;SDS011;55298;-36.624;-64.282;2023-07-30T06:05:26;26.58;;;7.18;;
59972;SDS011;55298;-36.624;-64.282;2023-07-30T06:07:54;34.25;;;7.30;;
59972;SDS011;55298;-36.624;-64.282;2023-07-30T06:10:22;36.65;;;8.18;;
59972;SDS011;55298;-36.624;-64.282;2023-07-30T06:12:50;30.73;;;7.80;;
59972;SDS011;55298;-36.624;-64.282;2023-07-30T06:15:17;21.98;;;6.85;;
59972;SDS011;55298;-36.624;-64.282;2023-07-30T06:17:45;40.80;;;8.07;;
59972;SDS011;55298;-36.624;-64.282;2023-07-30T06:20:13;28.33;;;8.65;;
59972;SDS011;55298;-36.624;-64.282;2023-07-30T06:22:45;29.20;;;7.55;;
59972;SDS011;55298;-36.624;-64.282;2023-07-30T06:25:13;27.55;;;7.47;;
59972;SDS011;55298;-36.624;-64.282;2023-07-30T06:27:40;34.10;;;7.95;;
59972;SDS011;55298;-36.624;-64.282;2023-07-30T06:30:08;35.35;;;8.57;;
59972;SDS011;55298;-36.624;-64.282;2023-07-30T06:32:36;28.67;;;7.15;;
59972;SDS011;55298;-36.624;-64.282;2023-07-30T06:35:04;32.20;;;7.50;;
59972;SDS011;55298;-36.624;-64.282;2023-07-30T06:37:32;36.88;;;7.82;;
59972;SDS011;55298;-36.624;-64.282;2023-07-30T06:40:00;27.23;;;7.05;;
59972;SDS011;55298;-36.624;-64.282;2023-07-30T06:42:31;30.25;;;7.32;;
59972;SDS011;55298;-36.624;-64.282;2023-07-30T06:44:59;26.52;;;8.13;;
59972;SDS011;55298;-36.624;-64.282;2023-07-30T06:47:27;32.72;;;8.43;;
59972;SDS011;55298;-36.624;-64.282;2023-07-30T06:49:55;31.52;;;8.27;;
59972;SDS011;55298;-36.624;-64.282;2023-07-30T06:52:22;34.17;;;8.13;;
59972;SDS011;55298;-36.624;-64.282;2023-07-30T06:54:50;51.00;;;8.98;;
59972;SDS011;55298;-36.624;-64.282;2023-07-30T06:57:18;30.63;;;7.47;;
59972;SDS011;55298;-36.624;-64.282;2023-07-30T06:59:46;32.97;;;8.05;;
59972;SDS011;55298;-36.624;-64.282;2023-07-30T07:02:13;48.75;;;9.20;;
59972;SDS011;55298;-36.624;-64.282;2023-07-30T07:04:41;42.60;;;8.35;;
59972;SDS011;55298;-36.624;-64.282;2023-07-30T07:07:09;44.95;;;9.93;;
59972;SDS011;55298;-36.624;-64.282;2023-07-30T07:09:38;39.22;;;9.05;;
59972;SDS011;55298;-36.624;-64.282;2023-07-30T07:12:05;34.33;;;8.50;;
59972;SDS011;55298;-36.624;-64.282;2023-07-30T07:14:34;26.92;;;7.43;;
59972;SDS011;55298;-36.624;-64.282;2023-07-30T07:17:01;54.70;;;10.23;;
59972;SDS011;55298;-36.624;-64.282;2023-07-30T07:19:30;46.58;;;8.88;;
59972;SDS011;55298;-36.624;-64.282;2023-07-30T07:22:03;26.75;;;8.85;;
59972;SDS011;55298;-36.624;-64.282;2023-07-30T07:24:31;25.50;;;6.43;;
59972;SDS011;55298;-36.624;-64.282;2023-07-30T07:26:59;20.25;;;6.50;;
59972;SDS011;55298;-36.624;-64.282;2023-07-30T07:29:28;48.90;;;10.10;;
59972;SDS011;55298;-36.624;-64.282;2023-07-30T07:31:56;48.13;;;9.00;;
59972;SDS011;55298;-36.624;-64.282;2023-07-30T07:34:24;44.03;;;9.35;;
59972;SDS011;55298;-36.624;-64.282;2023-07-30T07:36:52;47.72;;;8.30;;
59972;SDS011;55298;-36.624;-64.282;2023-07-30T07:39:19;31.02;;;9.63;;
59972;SDS011;55298;-36.624;-64.282;2023-07-30T07:41:47;28.75;;;7.60;;
59972;SDS011;55298;-36.624;-64.282;2023-07-30T07:44:15;39.25;;;8.95;;
59972;SDS011;55298;-36.624;-64.282;2023-07-30T07:46:42;26.80;;;7.50;;
59972;SDS011;55298;-36.624;-64.282;2023-07-30T07:49:10;22.23;;;8.32;;
59972;SDS011;55298;-36.624;-64.282;2023-07-30T07:51:38;21.15;;;9.20;;
59972;SDS011;55298;-36.624;-64.282;2023-07-30T07:54:06;25.00;;;7.72;;
59972;SDS011;55298;-36.624;-64.282;2023-07-30T07:56:34;25.85;;;9.60;;
59972;SDS011;55298;-36.624;-64.282;2023-07-30T07:59:02;32.90;;;10.50;;
59972;SDS011;55298;-36.624;-64.282;2023-07-30T08:01:29;24.73;;;7.30;;
59972;SDS011;55298;-36.624;-64.282;2023-07-30T08:03:57;31.55;;;9.90;;
59972;SDS011;55298;-36.624;-64.282;2023-07-30T08:06:25;42.55;;;9.13;;
59972;SDS011;55298;-36.624;-64.282;2023-07-30T08:08:53;39.50;;;8.07;;
59972;SDS011;55298;-36.624;-64.282;2023-07-30T08:11:20;35.70;;;9.35;;
59972;SDS011;55298;-36.624;-64.282;2023-07-30T08:13:48;42.40;;;7.95;;
59972;SDS011;55298;-36.624;-64.282;2023-07-30T08:16:16;38.08;;;9.10;;
59972;SDS011;55298;-36.624;-64.282;2023-07-30T08:18:44;41.95;;;9.02;;
59972;SDS011;55298;-36.624;-64.282;2023-07-30T08:21:12;28.25;;;8.40;;
59972;SDS011;55298;-36.624;-64.282;2023-07-30T08:23:43;29.40;;;8.32;;
59972;SDS011;55298;-36.624;-64.282;2023-07-30T08:26:12;30.33;;;7.72;;
59972;SDS011;55298;-36.624;-64.282;2023-07-30T08:28:40;21.95;;;7.68;;
59972;SDS011;55298;-36.624;-64.282;2023-07-30T08:31:09;19.40;;;7.43;;
59972;SDS011;55298;-36.624;-64.282;2023-07-30T08:33:37;40.58;;;10.15;;
59972;SDS011;55298;-36.624;-64.282;2023-07-30T08:36:05;32.55;;;9.00;;
59972;SDS011;55298;-36.624;-64.282;2023-07-30T08:38:32;39.30;;;9.75;;
59972;SDS011;55298;-36.624;-64.282;2023-07-30T08:41:01;17.67;;;6.95;;
59972;SDS011;55298;-36.624;-64.282;2023-07-30T08:43:29;22.30;;;7.85;;
59972;SDS011;55298;-36.624;-64.282;2023-07-30T08:45:57;29.45;;;7.47;;
59972;SDS011;55298;-36.624;-64.282;2023-07-30T08:48:27;23.13;;;8.18;;
59972;SDS011;55298;-36.624;-64.282;2023-07-30T08:50:56;23.35;;;7.90;;
59972;SDS011;55298;-36.624;-64.282;2023-07-30T08:53:24;24.17;;;7.07;;
59972;SDS011;55298;-36.624;-64.282;2023-07-30T08:55:54;28.73;;;8.05;;
59972;SDS011;55298;-36.624;-64.282;2023-07-30T08:58:23;29.90;;;7.47;;
59972;SDS011;55298;-36.624;-64.282;2023-07-30T09:00:55;47.88;;;10.43;;
59972;SDS011;55298;-36.624;-64.282;2023-07-30T09:03:24;46.70;;;8.85;;
59972;SDS011;55298;-36.624;-64.282;2023-07-30T09:05:55;35.45;;;8.32;;
59972;SDS011;55298;-36.624;-64.282;2023-07-30T09:08:23;26.13;;;7.47;;
59972;SDS011;55298;-36.624;-64.282;2023-07-30T09:10:51;40.55;;;9.15;;
59972;SDS011;55298;-36.624;-64.282;2023-07-30T09:13:22;38.22;;;8.10;;
59972;SDS011;55298;-36.624;-64.282;2023-07-30T09:15:50;28.08;;;9.70;;
59972;SDS011;55298;-36.624;-64.282;2023-07-30T09:18:17;29.77;;;8.00;;
59972;SDS011;55298;-36.624;-64.282;2023-07-30T09:20:45;34.45;;;7.53;;
59972;SDS011;55298;-36.624;-64.282;2023-07-30T09:23:14;26.13;;;7.20;;
59972;SDS011;55298;-36.624;-64.282;2023-07-30T09:25:44;25.17;;;6.78;;
59972;SDS011;55298;-36.624;-64.282;2023-07-30T09:28:15;29.92;;;6.82;;
59972;SDS011;55298;-36.624;-64.282;2023-07-30T09:30:48;27.27;;;7.90;;
59972;SDS011;55298;-36.624;-64.282;2023-07-30T09:33:18;29.90;;;7.68;;
59972;SDS011;55298;-36.624;-64.282;2023-07-30T09:35:47;22.35;;;6.30;;
59972;SDS011;55298;-36.624;-64.282;2023-07-30T09:38:19;39.13;;;8.27;;
59972;SDS011;55298;-36.624;-64.282;2023-07-30T09:40:46;27.42;;;8.20;;
59972;SDS011;55298;-36.624;-64.282;2023-07-30T09:43:16;24.13;;;7.88;;
59972;SDS011;55298;-36.624;-64.282;2023-07-30T09:45:44;30.65;;;7.93;;
59972;SDS011;55298;-36.624;-64.282;2023-07-30T09:48:13;30.50;;;7.57;;
59972;SDS011;55298;-36.624;-64.282;2023-07-30T09:50:41;33.17;;;8.43;;
59972;SDS011;55298;-36.624;-64.282;2023-07-30T09:53:10;30.05;;;7.75;;
59972;SDS011;55298;-36.624;-64.282;2023-07-30T09:55:39;24.08;;;7.57;;
59972;SDS011;55298;-36.624;-64.282;2023-07-30T09:58:07;22.23;;;7.97;;
59972;SDS011;55298;-36.624;-64.282;2023-07-30T10:00:37;25.67;;;8.98;;
59972;SDS011;55298;-36.624;-64.282;2023-07-30T10:03:06;22.10;;;8.23;;
59972;SDS011;55298;-36.624;-64.282;2023-07-30T10:05:36;29.20;;;8.07;;
59972;SDS011;55298;-36.624;-64.282;2023-07-30T10:08:08;27.52;;;8.15;;
59972;SDS011;55298;-36.624;-64.282;2023-07-30T10:10:41;24.45;;;7.63;;
59972;SDS011;55298;-36.624;-64.282;2023-07-30T10:13:09;24.65;;;9.77;;
59972;SDS011;55298;-36.624;-64.282;2023-07-30T10:15:39;17.95;;;7.45;;
59972;SDS011;55298;-36.624;-64.282;2023-07-30T10:18:07;16.35;;;7.95;;
59972;SDS011;55298;-36.624;-64.282;2023-07-30T10:20:34;19.48;;;9.10;;
59972;SDS011;55298;-36.624;-64.282;2023-07-30T10:23:04;25.10;;;7.80;;
59972;SDS011;55298;-36.624;-64.282;2023-07-30T10:28:25;13.63;;;7.97;;
59972;SDS011;55298;-36.624;-64.282;2023-07-30T10:30:55;18.75;;;7.88;;
59972;SDS011;55298;-36.624;-64.282;2023-07-30T10:33:24;18.85;;;7.38;;
59972;SDS011;55298;-36.624;-64.282;2023-07-30T10:36:13;13.93;;;7.40;;
59972;SDS011;55298;-36.624;-64.282;2023-07-30T10:38:43;12.57;;;7.35;;
59972;SDS011;55298;-36.624;-64.282;2023-07-30T10:41:13;12.05;;;7.18;;
59972;SDS011;55298;-36.624;-64.282;2023-07-30T10:43:43;12.25;;;7.28;;
59972;SDS011;55298;-36.624;-64.282;2023-07-30T10:46:15;16.30;;;7.43;;
59972;SDS011;55298;-36.624;-64.282;2023-07-30T10:48:46;16.15;;;7.30;;
59972;SDS011;55298;-36.624;-64.282;2023-07-30T10:51:16;13.68;;;6.75;;
59972;SDS011;55298;-36.624;-64.282;2023-07-30T10:53:46;13.60;;;6.70;;
59972;SDS011;55298;-36.624;-64.282;2023-07-30T10:56:16;9.07;;;7.28;;
59972;SDS011;55298;-36.624;-64.282;2023-07-30T10:58:49;15.07;;;6.88;;
59972;SDS011;55298;-36.624;-64.282;2023-07-30T11:01:19;21.15;;;7.15;;
59972;SDS011;55298;-36.624;-64.282;2023-07-30T11:03:50;9.60;;;6.47;;
59972;SDS011;55298;-36.624;-64.282;2023-07-30T11:06:21;11.70;;;6.88;;
59972;SDS011;55298;-36.624;-64.282;2023-07-30T11:11:18;11.32;;;6.20;;
59972;SDS011;55298;-36.624;-64.282;2023-07-30T11:13:47;14.82;;;7.53;;
59972;SDS011;55298;-36.624;-64.282;2023-07-30T11:16:15;11.05;;;6.38;;
59972;SDS011;55298;-36.624;-64.282;2023-07-30T11:18:43;11.65;;;6.57;;
59972;SDS011;55298;-36.624;-64.282;2023-07-30T11:21:14;9.93;;;6.20;;
59972;SDS011;55298;-36.624;-64.282;2023-07-30T11:23:43;14.32;;;6.70;;
59972;SDS011;55298;-36.624;-64.282;2023-07-30T11:26:14;12.65;;;7.18;;
59972;SDS011;55298;-36.624;-64.282;2023-07-30T11:28:44;9.18;;;7.40;;
59972;SDS011;55298;-36.624;-64.282;2023-07-30T11:31:13;12.98;;;7.13;;
59972;SDS011;55298;-36.624;-64.282;2023-07-30T11:33:45;12.75;;;6.22;;
59972;SDS011;55298;-36.624;-64.282;2023-07-30T11:36:16;13.98;;;7.10;;
59972;SDS011;55298;-36.624;-64.282;2023-07-30T11:38:47;16.30;;;6.70;;
59972;SDS011;55298;-36.624;-64.282;2023-07-30T11:41:15;8.50;;;7.53;;
59972;SDS011;55298;-36.624;-64.282;2023-07-30T11:43:44;19.60;;;7.07;;
59972;SDS011;55298;-36.624;-64.282;2023-07-30T11:46:13;19.17;;;7.32;;
59972;SDS011;55298;-36.624;-64.282;2023-07-30T11:48:43;15.20;;;6.97;;
59972;SDS011;55298;-36.624;-64.282;2023-07-30T11:53:51;13.18;;;7.65;;
59972;SDS011;55298;-36.624;-64.282;2023-07-30T11:56:22;11.43;;;6.75;;
59972;SDS011;55298;-36.624;-64.282;2023-07-30T11:58:54;18.17;;;7.32;;
59972;SDS011;55298;-36.624;-64.282;2023-07-30T12:01:25;13.30;;;7.43;;
59972;SDS011;55298;-36.624;-64.282;2023-07-30T12:03:55;8.48;;;6.78;;
59972;SDS011;55298;-36.624;-64.282;2023-07-30T12:11:49;10.75;;;7.60;;
59972;SDS011;55298;-36.624;-64.282;2023-07-30T12:14:21;9.43;;;6.97;;
59972;SDS011;55298;-36.624;-64.282;2023-07-30T12:17:08;10.10;;;6.53;;
59972;SDS011;55298;-36.624;-64.282;2023-07-30T12:19:36;12.15;;;7.20;;
59972;SDS011;55298;-36.624;-64.282;2023-07-30T12:22:04;15.75;;;6.68;;
59972;SDS011;55298;-36.624;-64.282;2023-07-30T12:24:32;17.35;;;6.68;;
59972;SDS011;55298;-36.624;-64.282;2023-07-30T12:27:00;13.40;;;6.78;;
59972;SDS011;55298;-36.624;-64.282;2023-07-30T12:29:28;8.00;;;6.45;;
59972;SDS011;55298;-36.624;-64.282;2023-07-30T12:31:56;12.20;;;8.00;;
59972;SDS011;55298;-36.624;-64.282;2023-07-30T12:34:24;10.82;;;6.55;;
59972;SDS011;55298;-36.624;-64.282;2023-07-30T12:36:52;9.77;;;6.45;;
59972;SDS011;55298;-36.624;-64.282;2023-07-30T12:39:20;10.10;;;6.07;;
59972;SDS011;55298;-36.624;-64.282;2023-07-30T12:41:48;9.63;;;6.22;;
59972;SDS011;55298;-36.624;-64.282;2023-07-30T12:44:16;9.57;;;5.78;;
59972;SDS011;55298;-36.624;-64.282;2023-07-30T12:46:44;10.63;;;5.93;;
59972;SDS011;55298;-36.624;-64.282;2023-07-30T12:49:12;6.22;;;5.63;;
59972;SDS011;55298;-36.624;-64.282;2023-07-30T12:51:40;13.98;;;6.20;;
59972;SDS011;55298;-36.624;-64.282;2023-07-30T12:54:10;10.75;;;6.20;;
59972;SDS011;55298;-36.624;-64.282;2023-07-30T12:56:38;9.90;;;6.53;;
59972;SDS011;55298;-36.624;-64.282;2023-07-30T12:59:06;16.00;;;6.43;;
59972;SDS011;55298;-36.624;-64.282;2023-07-30T13:01:34;8.85;;;6.70;;
59972;SDS011;55298;-36.624;-64.282;2023-07-30T13:04:02;11.10;;;6.50;;
59972;SDS011;55298;-36.624;-64.282;2023-07-30T13:06:30;11.02;;;5.80;;
59972;SDS011;55298;-36.624;-64.282;2023-07-30T13:08:57;8.10;;;5.78;;
59972;SDS011;55298;-36.624;-64.282;2023-07-30T13:11:25;10.38;;;6.43;;
59972;SDS011;55298;-36.624;-64.282;2023-07-30T13:13:53;12.57;;;6.55;;
59972;SDS011;55298;-36.624;-64.282;2023-07-30T13:16:21;13.00;;;6.30;;
59972;SDS011;55298;-36.624;-64.282;2023-07-30T13:18:49;8.57;;;6.82;;
59972;SDS011;55298;-36.624;-64.282;2023-07-30T13:21:18;6.13;;;5.53;;
59972;SDS011;55298;-36.624;-64.282;2023-07-30T13:23:47;12.88;;;5.80;;
59972;SDS011;55298;-36.624;-64.282;2023-07-30T13:26:17;8.73;;;5.82;;
59972;SDS011;55298;-36.624;-64.282;2023-07-30T13:28:45;12.70;;;6.47;;
59972;SDS011;55298;-36.624;-64.282;2023-07-30T13:31:13;9.77;;;6.00;;
59972;SDS011;55298;-36.624;-64.282;2023-07-30T13:36:18;8.27;;;5.97;;
59972;SDS011;55298;-36.624;-64.282;2023-07-30T13:38:46;9.88;;;6.18;;
59972;SDS011;55298;-36.624;-64.282;2023-07-30T13:41:16;10.20;;;5.88;;
59972;SDS011;55298;-36.624;-64.282;2023-07-30T13:43:45;11.70;;;5.95;;
59972;SDS011;55298;-36.624;-64.282;2023-07-30T13:51:04;9.50;;;5.03;;
59972;SDS011;55298;-36.624;-64.282;2023-07-30T13:53:32;8.20;;;5.80;;
59972;SDS011;55298;-36.624;-64.282;2023-07-30T13:56:04;13.13;;;6.50;;
59972;SDS011;55298;-36.624;-64.282;2023-07-30T13:58:31;10.35;;;6.15;;
59972;SDS011;55298;-36.624;-64.282;2023-07-30T14:01:07;10.07;;;5.82;;
59972;SDS011;55298;-36.624;-64.282;2023-07-30T14:03:58;8.60;;;5.30;;
59972;SDS011;55298;-36.624;-64.282;2023-07-30T14:06:35;7.72;;;5.30;;
59972;SDS011;55298;-36.624;-64.282;2023-07-30T14:09:11;9.98;;;5.50;;
59972;SDS011;55298;-36.624;-64.282;2023-07-30T14:11:43;9.45;;;5.78;;
59972;SDS011;55298;-36.624;-64.282;2023-07-30T14:14:12;9.15;;;5.55;;
59972;SDS011;55298;-36.624;-64.282;2023-07-30T14:16:39;13.60;;;5.30;;
59972;SDS011;55298;-36.624;-64.282;2023-07-30T14:22:05;10.35;;;5.53;;
59972;SDS011;55298;-36.624;-64.282;2023-07-30T14:27:19;10.38;;;7.40;;
59972;SDS011;55298;-36.624;-64.282;2023-07-30T14:29:51;11.10;;;7.40;;
59972;SDS011;55298;-36.624;-64.282;2023-07-30T14:32:20;14.35;;;7.60;;